Squamish, Canada
Current Conditions -  °F | °C
As of 5:00 PM on Monday 26 Jan 2015 (Local Time) from CWAE Reporting Station
Broken Clouds Broken Clouds  
Wind Chill: 39°   Ceiling: 12000
Heat Index: 39°   Visibility: 15mi
Dew Point: 37°   Wind: 0mph
Humidity: 93%   Direction: NA
Pressure: 29.88"   Gusts: NA
Location:  49.7°N, 123.15°W
Report Text: CWAE 270100Z 00000KT 15SM BKN120 04/03 A2988 RMK AC5 LAST OBS/NEXT 271500UTC WND ESTD SLP134
Loading
Personal Weather Stations






























Interactive Weather Map New forecast layout! Learn more

10-Day Weather Forecast

Advertisements
Track Severe Weather on mobile